Time;durP1;ratioP1;P1;durP2;ratioP2;P2;SDS_P1;SDS_P2;PMS_P1;PMS_P2;Temp;Humidity;BMP_temperature;BMP_pressure;BME280_temperature;BME280_humidity;BME280_pressure;Samples;Min_cycle;Max_cycle;Signal;HPM_P1;HPM_P2
2023/10/24 00:00:30;;;;;;;;;;;;;;;;;;5033480;28;4524;-59
2023/10/24 00:02:55;;;;;;;;;;;;;;;;;;5025036;28;4954;-59
2023/10/24 00:05:21;;;;;;;;;;;;;;;;;;5029571;28;1145;-58
2023/10/24 00:11:11;;;;;;;;;;;;;;;;;;5024010;28;4738;-58
2023/10/24 00:20:01;;;;;;;;;;;;;;;;;;5013628;28;5299;-59
2023/10/24 00:22:26;;;;;;;;;;;;;;;;;;5027340;28;4845;-58
2023/10/24 00:24:51;;;;;;;;;;;;;;;;;;5020429;28;5092;-58
2023/10/24 00:30:19;;;;;;;;;;;;;;;;;;5018505;28;4717;-58
2023/10/24 00:32:49;;;;;;;;;;;;;;;;;;5032771;28;1268;-59
2023/10/24 00:35:15;;;;;;;;;;;;;;;;;;5013608;28;5053;-57
2023/10/24 00:37:41;;;;;;;;;;;;;;;;;;5009239;28;5232;-57
2023/10/24 00:40:07;;;;;;;;;;;;;;;;;;5024318;28;4502;-58
2023/10/24 00:42:32;;;;;;;;;;;;;;;;;;5031181;28;4875;-58
2023/10/24 00:44:58;;;;;;;;;;;;;;;;;;5013198;28;5035;-58
2023/10/24 00:47:23;;;;;;;;;;;;;;;;;;5013346;28;1101;-58
2023/10/24 00:50:04;;;;;;;;;;;;;;;;;;5011333;28;4631;-58
2023/10/24 00:52:30;;;;;;;;;;;;;;;;;;5012592;28;4743;-58
2023/10/24 00:54:55;;;;;;;;;;;;;;;;;;5015023;28;5186;-58
2023/10/24 00:57:21;;;;;;;;;;;;;;;;;;5027910;28;5118;-58
2023/10/24 00:59:46;;;;;;;;;;;;;;;;;;5025980;28;1239;-59
2023/10/24 01:02:11;;;;;;;;;;;;;;;;;;5017880;28;5044;-58
2023/10/24 01:04:37;;;;;;;;;;;;;;;;;;5018256;28;4980;-58
2023/10/24 01:07:02;;;;;;;;;;;;;;;;;;5031273;28;4631;-58
2023/10/24 01:09:28;;;;;;;;;;;;;;;;;;5016809;28;5116;-57
2023/10/24 01:11:53;;;;;;;;;;;;;;;;;;5015814;28;5015;-58
2023/10/24 01:14:18;;;;;;;;;;;;;;;;;;5016553;28;1128;-58
2023/10/24 01:22:49;;;;;;;;;;;;;;;;;;5018069;28;5159;-58
2023/10/24 01:25:15;;;;;;;;;;;;;;;;;;5016206;28;4443;-58
2023/10/24 01:27:41;;;;;;;;;;;;;;;;;;5031109;28;5099;-58
2023/10/24 01:30:07;;;;;;;;;;;;;;;;;;5015515;28;5191;-58
2023/10/24 01:32:32;;;;;;;;;;;;;;;;;;5016117;28;1072;-58
2023/10/24 01:34:57;;;;;;;;;;;;;;;;;;5029412;28;4482;-59
2023/10/24 01:37:23;;;;;;;;;;;;;;;;;;5019814;28;5074;-58
2023/10/24 01:40:02;;;;;;;;;;;;;;;;;;5025442;28;4625;-58
2023/10/24 01:42:28;;;;;;;;;;;;;;;;;;5014945;28;5074;-58
2023/10/24 01:44:53;;;;;;;;;;;;;;;;;;5015232;28;5077;-58
2023/10/24 01:47:18;;;;;;;;;;;;;;;;;;5016079;28;1131;-58
2023/10/24 01:49:44;;;;;;;;;;;;;;;;;;5017742;28;4425;-58
2023/10/24 01:52:10;;;;;;;;;;;;;;;;;;5013563;28;4904;-58
2023/10/24 01:54:48;;;;;;;;;;;;;;;;;;5016012;28;5133;-58
2023/10/24 02:00:36;;;;;;;;;;;;;;;;;;5028244;28;5004;-58
2023/10/24 02:06:04;;;;;;;;;;;;;;;;;;5015768;28;5030;-58
2023/10/24 02:08:58;;;;;;;;;;;;;;;;;;5016327;28;1007;-58
2023/10/24 02:11:23;;;;;;;;;;;;;;;;;;5012760;28;5142;-59
2023/10/24 02:13:51;;;;;;;;;;;;;;;;;;5015776;28;4507;-58
2023/10/24 02:16:17;;;;;;;;;;;;;;;;;;5013824;28;4608;-58
2023/10/24 02:18:42;;;;;;;;;;;;;;;;;;5016647;28;5103;-58
2023/10/24 02:21:08;;;;;;;;;;;;;;;;;;5016754;28;4881;-59
2023/10/24 02:23:34;;;;;;;;;;;;;;;;;;5016517;28;1092;-58
2023/10/24 02:25:59;;;;;;;;;;;;;;;;;;5011955;28;5244;-58
2023/10/24 02:28:48;;;;;;;;;;;;;;;;;;5014851;28;4465;-58
2023/10/24 02:31:18;;;;;;;;;;;;;;;;;;5013172;28;5205;-58
2023/10/24 02:33:43;;;;;;;;;;;;;;;;;;5011262;28;4467;-59
2023/10/24 02:39:11;;;;;;;;;;;;;;;;;;5009481;28;4696;-59
2023/10/24 02:41:37;;;;;;;;;;;;;;;;;;5012529;28;975;-59
2023/10/24 02:44:02;;;;;;;;;;;;;;;;;;5017624;28;4481;-58
2023/10/24 02:46:28;;;;;;;;;;;;;;;;;;5015188;28;4430;-58
2023/10/24 02:49:02;;;;;;;;;;;;;;;;;;5015387;28;4922;-58
2023/10/24 02:51:27;;;;;;;;;;;;;;;;;;5009727;28;4989;-59
2023/10/24 02:53:52;;;;;;;;;;;;;;;;;;5009992;28;5026;-59
2023/10/24 02:59:20;;;;;;;;;;;;;;;;;;5009051;28;4938;-58
2023/10/24 03:01:46;;;;;;;;;;;;;;;;;;5012283;28;5176;-59
2023/10/24 03:04:12;;;;;;;;;;;;;;;;;;4998081;28;4485;-59
2023/10/24 03:09:47;;;;;;;;;;;;;;;;;;5016177;28;5103;-58
2023/10/24 03:15:15;;;;;;;;;;;;;;;;;;5015811;28;4686;-58
2023/10/24 03:17:40;;;;;;;;;;;;;;;;;;5014344;28;1981;-58
2023/10/24 03:20:06;;;;;;;;;;;;;;;;;;5013600;28;5051;-58
2023/10/24 03:22:31;;;;;;;;;;;;;;;;;;4997201;28;4803;-58
2023/10/24 03:25:03;;;;;;;;;;;;;;;;;;5006705;28;5191;-58
2023/10/24 03:27:29;;;;;;;;;;;;;;;;;;4988946;28;4420;-59
2023/10/24 03:29:54;;;;;;;;;;;;;;;;;;4994853;28;5055;-58
2023/10/24 03:32:19;;;;;;;;;;;;;;;;;;4994899;28;1162;-58
2023/10/24 03:34:45;;;;;;;;;;;;;;;;;;4992798;28;4933;-58
2023/10/24 03:37:10;;;;;;;;;;;;;;;;;;5000652;28;5088;-59
2023/10/24 03:39:36;;;;;;;;;;;;;;;;;;5009105;28;4780;-58
2023/10/24 03:42:26;;;;;;;;;;;;;;;;;;4993070;28;5070;-58
2023/10/24 03:44:51;;;;;;;;;;;;;;;;;;5012567;28;4693;-58
2023/10/24 03:47:17;;;;;;;;;;;;;;;;;;4997393;28;1099;-58
2023/10/24 03:49:42;;;;;;;;;;;;;;;;;;4993997;28;4976;-58
2023/10/24 03:52:08;;;;;;;;;;;;;;;;;;4995456;28;4435;-58
2023/10/24 03:57:36;;;;;;;;;;;;;;;;;;4995752;28;5056;-58
2023/10/24 04:03:31;;;;;;;;;;;;;;;;;;4993704;28;5200;-58
2023/10/24 04:09:04;;;;;;;;;;;;;;;;;;4989922;28;5001;-59
2023/10/24 04:11:29;;;;;;;;;;;;;;;;;;4992894;28;1342;-58
2023/10/24 04:13:54;;;;;;;;;;;;;;;;;;5011515;28;5096;-58
2023/10/24 04:16:20;;;;;;;;;;;;;;;;;;5014497;28;4810;-58
2023/10/24 04:19:10;;;;;;;;;;;;;;;;;;5028686;28;5310;-58
2023/10/24 04:21:35;;;;;;;;;;;;;;;;;;4983878;28;5078;-58
2023/10/24 04:24:00;;;;;;;;;;;;;;;;;;4997949;28;5058;-58
2023/10/24 04:26:46;;;;;;;;;;;;;;;;;;5022117;28;1107;-58
2023/10/24 04:32:14;;;;;;;;;;;;;;;;;;5013435;28;4724;-58
2023/10/24 04:46:50;;;;;;;;;;;;;;;;;;5007509;28;4491;-58
2023/10/24 04:49:16;;;;;;;;;;;;;;;;;;5017756;28;5097;-58
2023/10/24 04:51:41;;;;;;;;;;;;;;;;;;5011912;28;4638;-58
2023/10/24 04:54:07;;;;;;;;;;;;;;;;;;5007887;28;5479;-58
2023/10/24 04:56:32;;;;;;;;;;;;;;;;;;5016561;28;1911;-58
2023/10/24 04:58:58;;;;;;;;;;;;;;;;;;5009271;28;4883;-58
2023/10/24 05:01:23;;;;;;;;;;;;;;;;;;5012784;28;5084;-58
2023/10/24 05:03:48;;;;;;;;;;;;;;;;;;5011513;28;5041;-59
2023/10/24 05:06:14;;;;;;;;;;;;;;;;;;5008884;28;4531;-58
2023/10/24 05:08:39;;;;;;;;;;;;;;;;;;5014768;28;1058;-58
2023/10/24 05:14:08;;;;;;;;;;;;;;;;;;5012430;28;4946;-58
2023/10/24 05:19:36;;;;;;;;;;;;;;;;;;5014157;28;4983;-58
2023/10/24 05:22:01;;;;;;;;;;;;;;;;;;5023081;28;5236;-58
2023/10/24 05:24:26;;;;;;;;;;;;;;;;;;5031541;28;5070;-58
2023/10/24 05:26:51;;;;;;;;;;;;;;;;;;5031641;28;5013;-59
2023/10/24 05:32:19;;;;;;;;;;;;;;;;;;5008477;28;4766;-58
2023/10/24 05:34:44;;;;;;;;;;;;;;;;;;5013616;28;4681;-58
2023/10/24 05:37:10;;;;;;;;;;;;;;;;;;5021749;28;4708;-58
2023/10/24 05:39:35;;;;;;;;;;;;;;;;;;5032057;28;4460;-58
2023/10/24 05:45:03;;;;;;;;;;;;;;;;;;5011164;28;5082;-58
2023/10/24 05:47:29;;;;;;;;;;;;;;;;;;5015995;28;2833;-58
2023/10/24 05:49:54;;;;;;;;;;;;;;;;;;5029595;28;5023;-52
2023/10/24 05:55:22;;;;;;;;;;;;;;;;;;5017192;28;4853;-52
2023/10/24 05:57:47;;;;;;;;;;;;;;;;;;5019153;28;4924;-51
2023/10/24 06:00:13;;;;;;;;;;;;;;;;;;5027580;28;5042;-52
2023/10/24 06:02:39;;;;;;;;;;;;;;;;;;5040766;28;1137;-52
2023/10/24 06:05:07;;;;;;;;;;;;;;;;;;5039307;28;4919;-51
2023/10/24 06:07:33;;;;;;;;;;;;;;;;;;5014922;28;4672;-53
2023/10/24 06:09:58;;;;;;;;;;;;;;;;;;5013512;28;4984;-52
2023/10/24 06:12:24;;;;;;;;;;;;;;;;;;5016967;28;4944;-52
2023/10/24 06:14:49;;;;;;;;;;;;;;;;;;5012920;28;4962;-51
2023/10/24 06:17:17;;;;;;;;;;;;;;;;;;5012820;28;1975;-52
2023/10/24 06:19:43;;;;;;;;;;;;;;;;;;5012381;28;4695;-53
2023/10/24 06:22:16;;;;;;;;;;;;;;;;;;5017119;28;4762;-51
2023/10/24 06:24:41;;;;;;;;;;;;;;;;;;5012695;28;4780;-49
2023/10/24 06:27:09;;;;;;;;;;;;;;;;;;5011095;28;5233;-52
2023/10/24 06:29:34;;;;;;;;;;;;;;;;;;4997829;28;2156;-52
2023/10/24 06:31:59;;;;;;;;;;;;;;;;;;4995429;28;5369;-51
2023/10/24 06:34:34;;;;;;;;;;;;;;;;;;5014622;28;4619;-51
2023/10/24 06:37:00;;;;;;;;;;;;;;;;;;5014003;28;4951;-52
2023/10/24 06:39:25;;;;;;;;;;;;;;;;;;5014024;28;5024;-48
2023/10/24 06:41:50;;;;;;;;;;;;;;;;;;5012671;28;5049;-49
2023/10/24 06:44:15;;;;;;;;;;;;;;;;;;5031813;28;1209;-51
2023/10/24 06:46:41;;;;;;;;;;;;;;;;;;5010839;28;5018;-52
2023/10/24 06:49:08;;;;;;;;;;;;;;;;;;5008258;28;5020;-52
2023/10/24 06:51:33;;;;;;;;;;;;;;;;;;5015267;28;5447;-51
2023/10/24 06:53:59;;;;;;;;;;;;;;;;;;5014471;28;5171;-50
2023/10/24 06:56:24;;;;;;;;;;;;;;;;;;5017803;28;1906;-51
2023/10/24 06:58:50;;;;;;;;;;;;;;;;;;5011266;28;4824;-50
2023/10/24 07:01:15;;;;;;;;;;;;;;;;;;5010685;28;4503;-49
2023/10/24 07:03:40;;;;;;;;;;;;;;;;;;5026796;28;5144;-48
2023/10/24 07:06:06;;;;;;;;;;;;;;;;;;5008194;28;4458;-52
2023/10/24 07:11:34;;;;;;;;;;;;;;;;;;5017207;28;4556;-47
2023/10/24 07:14:07;;;;;;;;;;;;;;;;;;5014236;28;4723;-49
2023/10/24 07:22:37;;;;;;;;;;;;;;;;;;5016001;28;4424;-49
2023/10/24 07:25:03;;;;;;;;;;;;;;;;;;5020599;28;4469;-49
2023/10/24 07:27:28;;;;;;;;;;;;;;;;;;5034480;28;5336;-48
2023/10/24 07:29:53;;;;;;;;;;;;;;;;;;5028459;28;4642;-50
2023/10/24 07:35:40;;;;;;;;;;;;;;;;;;5018733;28;4589;-49
2023/10/24 07:38:06;;;;;;;;;;;;;;;;;;5014523;28;5045;-50
2023/10/24 07:40:31;;;;;;;;;;;;;;;;;;5011450;28;5228;-51
2023/10/24 07:43:03;;;;;;;;;;;;;;;;;;5011836;28;5167;-47
2023/10/24 07:45:30;;;;;;;;;;;;;;;;;;5008701;28;5020;-52
2023/10/24 07:47:55;;;;;;;;;;;;;;;;;;5015435;28;4872;-51
2023/10/24 07:50:21;;;;;;;;;;;;;;;;;;5012837;28;1075;-51
2023/10/24 07:52:46;;;;;;;;;;;;;;;;;;5018174;28;5107;-51
2023/10/24 07:55:11;;;;;;;;;;;;;;;;;;5020205;28;4976;-50
2023/10/24 07:57:37;;;;;;;;;;;;;;;;;;5028509;28;5106;-48
2023/10/24 08:00:15;;;;;;;;;;;;;;;;;;5013067;28;5064;-48
2023/10/24 08:02:41;;;;;;;;;;;;;;;;;;5010166;28;1220;-51
2023/10/24 08:05:06;;;;;;;;;;;;;;;;;;5015008;28;5017;-51
2023/10/24 08:07:32;;;;;;;;;;;;;;;;;;5012823;28;4462;-51
2023/10/24 08:13:10;;;;;;;;;;;;;;;;;;5013121;28;5004;-47
2023/10/24 08:15:35;;;;;;;;;;;;;;;;;;5010720;28;4493;-51
2023/10/24 08:18:00;;;;;;;;;;;;;;;;;;4990884;28;4692;-51
2023/10/24 08:20:26;;;;;;;;;;;;;;;;;;5007310;28;1771;-51
2023/10/24 08:23:06;;;;;;;;;;;;;;;;;;5014343;28;4630;-50
2023/10/24 08:25:32;;;;;;;;;;;;;;;;;;5017923;28;5224;-48
2023/10/24 08:27:57;;;;;;;;;;;;;;;;;;5009473;28;4639;-51
2023/10/24 08:30:22;;;;;;;;;;;;;;;;;;5045735;28;5168;-47
2023/10/24 08:38:53;;;;;;;;;;;;;;;;;;5011961;28;5137;-51
2023/10/24 08:41:34;;;;;;;;;;;;;;;;;;5029414;28;1639;-48
2023/10/24 08:44:00;;;;;;;;;;;;;;;;;;5008476;28;4450;-51
2023/10/24 08:46:26;;;;;;;;;;;;;;;;;;5011844;28;5043;-47
2023/10/24 08:48:51;;;;;;;;;;;;;;;;;;5024751;28;5210;-50
2023/10/24 08:54:19;;;;;;;;;;;;;;;;;;5010987;28;4650;-48
2023/10/24 08:56:44;;;;;;;;;;;;;;;;;;5007451;28;1985;-47
2023/10/24 08:59:11;;;;;;;;;;;;;;;;;;5007045;28;4416;-49
2023/10/24 09:01:59;;;;;;;;;;;;;;;;;;5008939;28;5295;-48
2023/10/24 09:04:25;;;;;;;;;;;;;;;;;;5009311;28;4452;-48
2023/10/24 09:06:56;;;;;;;;;;;;;;;;;;5006695;28;4456;-48
2023/10/24 09:09:22;;;;;;;;;;;;;;;;;;5035110;28;4692;-48
2023/10/24 09:11:53;;;;;;;;;;;;;;;;;;5031837;28;5047;-49
2023/10/24 09:20:23;;;;;;;;;;;;;;;;;;5012426;28;4720;-49
2023/10/24 09:22:49;;;;;;;;;;;;;;;;;;5013899;28;5032;-48
2023/10/24 09:25:14;;;;;;;;;;;;;;;;;;4996172;28;4540;-49
2023/10/24 09:33:46;;;;;;;;;;;;;;;;;;5057524;28;4596;-48
2023/10/24 09:39:36;;;;;;;;;;;;;;;;;;5016102;28;4510;-47
2023/10/24 09:42:02;;;;;;;;;;;;;;;;;;5013245;28;5028;-50
2023/10/24 09:44:27;;;;;;;;;;;;;;;;;;4999492;28;1248;-52
2023/10/24 09:46:52;;;;;;;;;;;;;;;;;;4996753;28;5008;-47
2023/10/24 09:49:18;;;;;;;;;;;;;;;;;;5035502;28;5610;-51
2023/10/24 09:51:43;;;;;;;;;;;;;;;;;;5037109;28;4868;-51
2023/10/24 09:54:08;;;;;;;;;;;;;;;;;;5027730;28;5096;-49
2023/10/24 09:56:34;;;;;;;;;;;;;;;;;;5015766;28;1914;-50
2023/10/24 09:58:59;;;;;;;;;;;;;;;;;;5015391;28;4845;-49
2023/10/24 10:01:25;;;;;;;;;;;;;;;;;;5012416;28;4912;-48
2023/10/24 10:03:51;;;;;;;;;;;;;;;;;;5032832;28;5007;-53
2023/10/24 10:09:38;;;;;;;;;;;;;;;;;;5013412;28;4740;-49
2023/10/24 10:12:04;;;;;;;;;;;;;;;;;;5012861;28;4460;-50
2023/10/24 10:14:32;;;;;;;;;;;;;;;;;;4994054;28;1046;-48
2023/10/24 10:17:01;;;;;;;;;;;;;;;;;;5009814;28;5242;-49
2023/10/24 10:19:45;;;;;;;;;;;;;;;;;;5012483;28;4942;-51
2023/10/24 10:22:40;;;;;;;;;;;;;;;;;;5021614;28;4642;-50
2023/10/24 10:25:14;;;;;;;;;;;;;;;;;;4997154;28;5081;-48
2023/10/24 10:30:33;;;;;;;;;;;;;;;;;;5013179;28;4633;-49
2023/10/24 10:32:58;;;;;;;;;;;;;;;;;;5022900;28;4506;-50
2023/10/24 10:35:43;;;;;;;;;;;;;;;;;;5015108;28;1270;-49
2023/10/24 10:38:08;;;;;;;;;;;;;;;;;;5020605;28;4711;-48
2023/10/24 10:40:34;;;;;;;;;;;;;;;;;;5022556;28;4618;-51
2023/10/24 10:46:20;;;;;;;;;;;;;;;;;;5012509;28;4502;-51
2023/10/24 10:48:52;;;;;;;;;;;;;;;;;;5015545;28;4645;-53
2023/10/24 10:51:39;;;;;;;;;;;;;;;;;;5012971;28;4457;-50
2023/10/24 10:54:19;;;;;;;;;;;;;;;;;;5011427;28;4668;-50
2023/10/24 10:56:44;;;;;;;;;;;;;;;;;;5021608;28;1914;-50
2023/10/24 11:08:18;;;;;;;;;;;;;;;;;;5010710;28;4612;-51
2023/10/24 11:10:54;;;;;;;;;;;;;;;;;;4994040;28;4866;-50
2023/10/24 11:13:38;;;;;;;;;;;;;;;;;;5013748;28;4621;-52
2023/10/24 11:16:04;;;;;;;;;;;;;;;;;;5009658;28;5186;-53
2023/10/24 11:18:30;;;;;;;;;;;;;;;;;;5014080;28;4639;-53
2023/10/24 11:24:00;;;;;;;;;;;;;;;;;;5015488;28;4952;-50
2023/10/24 11:26:26;;;;;;;;;;;;;;;;;;5013262;28;1810;-50
2023/10/24 11:28:51;;;;;;;;;;;;;;;;;;5013849;28;5006;-49
2023/10/24 11:31:20;;;;;;;;;;;;;;;;;;5012477;28;5093;-49
2023/10/24 11:33:46;;;;;;;;;;;;;;;;;;5015325;28;4950;-49
2023/10/24 11:36:11;;;;;;;;;;;;;;;;;;5015221;28;5036;-49
2023/10/24 11:38:36;;;;;;;;;;;;;;;;;;5015994;28;1097;-49
2023/10/24 11:44:04;;;;;;;;;;;;;;;;;;5014253;28;4464;-49
2023/10/24 11:46:29;;;;;;;;;;;;;;;;;;5018131;28;5097;-49
2023/10/24 11:48:55;;;;;;;;;;;;;;;;;;5007950;28;5196;-49
2023/10/24 11:51:20;;;;;;;;;;;;;;;;;;5017491;28;4455;-50
2023/10/24 11:53:46;;;;;;;;;;;;;;;;;;5015602;28;1084;-48
2023/10/24 11:56:12;;;;;;;;;;;;;;;;;;5008825;28;4590;-50
2023/10/24 11:58:37;;;;;;;;;;;;;;;;;;5009763;28;4487;-49
2023/10/24 12:07:16;;;;;;;;;;;;;;;;;;5007533;28;4995;-49
2023/10/24 12:12:45;;;;;;;;;;;;;;;;;;5014746;28;4810;-52
2023/10/24 12:15:10;;;;;;;;;;;;;;;;;;5012374;28;5128;-50
2023/10/24 12:17:58;;;;;;;;;;;;;;;;;;5013691;28;1969;-48
2023/10/24 12:20:23;;;;;;;;;;;;;;;;;;5013366;28;4633;-49
2023/10/24 12:22:49;;;;;;;;;;;;;;;;;;5013034;28;5245;-49
2023/10/24 12:25:15;;;;;;;;;;;;;;;;;;5016143;28;5025;-48
2023/10/24 12:33:56;;;;;;;;;;;;;;;;;;5008429;28;4438;-49
2023/10/24 12:36:21;;;;;;;;;;;;;;;;;;5010413;28;4667;-48
2023/10/24 12:38:47;;;;;;;;;;;;;;;;;;4996723;28;1107;-49
2023/10/24 12:41:13;;;;;;;;;;;;;;;;;;5008634;28;5005;-50
2023/10/24 12:43:38;;;;;;;;;;;;;;;;;;5012674;28;4480;-48
2023/10/24 12:46:04;;;;;;;;;;;;;;;;;;5012925;28;4557;-51
2023/10/24 12:48:29;;;;;;;;;;;;;;;;;;5010140;28;4520;-50
2023/10/24 12:50:54;;;;;;;;;;;;;;;;;;4995111;28;4485;-50
2023/10/24 12:53:20;;;;;;;;;;;;;;;;;;5011998;28;1159;-53
2023/10/24 12:55:45;;;;;;;;;;;;;;;;;;5006065;28;5035;-51
2023/10/24 12:58:15;;;;;;;;;;;;;;;;;;5007375;28;4934;-50
2023/10/24 13:00:41;;;;;;;;;;;;;;;;;;5011708;28;4834;-50
2023/10/24 13:03:06;;;;;;;;;;;;;;;;;;5008551;28;5066;-52
2023/10/24 13:05:39;;;;;;;;;;;;;;;;;;5021783;28;1193;-50
2023/10/24 13:08:04;;;;;;;;;;;;;;;;;;5013689;28;4853;-52
2023/10/24 13:10:29;;;;;;;;;;;;;;;;;;5014412;28;4594;-52
2023/10/24 13:12:55;;;;;;;;;;;;;;;;;;5012487;28;5005;-52
2023/10/24 13:15:48;;;;;;;;;;;;;;;;;;5022643;28;5092;-48
2023/10/24 13:21:18;;;;;;;;;;;;;;;;;;5013758;28;4835;-51
2023/10/24 13:51:10;;;;;;;;;;;;;;;;;;5014629;28;4945;-50
2023/10/24 13:53:35;;;;;;;;;;;;;;;;;;5012478;28;1082;-50
2023/10/24 13:56:00;;;;;;;;;;;;;;;;;;5011413;28;4983;-50
2023/10/24 13:58:25;;;;;;;;;;;;;;;;;;5013554;28;5014;-50
2023/10/24 14:03:54;;;;;;;;;;;;;;;;;;5009447;28;5008;-50
2023/10/24 14:06:19;;;;;;;;;;;;;;;;;;5013829;28;4980;-49
2023/10/24 14:08:46;;;;;;;;;;;;;;;;;;5017534;28;1084;-49
2023/10/24 14:14:15;;;;;;;;;;;;;;;;;;5014469;28;5382;-52
2023/10/24 14:16:50;;;;;;;;;;;;;;;;;;5013949;28;4966;-49
2023/10/24 14:19:15;;;;;;;;;;;;;;;;;;5012807;28;4653;-49
2023/10/24 14:21:41;;;;;;;;;;;;;;;;;;5024661;28;5087;-49
2023/10/24 14:24:06;;;;;;;;;;;;;;;;;;5024217;28;4526;-49
2023/10/24 14:29:35;;;;;;;;;;;;;;;;;;5005896;28;4739;-51
2023/10/24 14:32:00;;;;;;;;;;;;;;;;;;5012912;28;5031;-50
2023/10/24 14:34:25;;;;;;;;;;;;;;;;;;5008657;28;4504;-49
2023/10/24 14:36:51;;;;;;;;;;;;;;;;;;5015546;28;5153;-52
2023/10/24 14:42:44;;;;;;;;;;;;;;;;;;5014143;28;5188;-50
2023/10/24 14:45:10;;;;;;;;;;;;;;;;;;4993635;28;4618;-50
2023/10/24 14:47:35;;;;;;;;;;;;;;;;;;5017254;28;1004;-51
2023/10/24 14:56:35;;;;;;;;;;;;;;;;;;5019026;28;4705;-52
2023/10/24 14:59:00;;;;;;;;;;;;;;;;;;5008210;28;5077;-49
2023/10/24 15:01:26;;;;;;;;;;;;;;;;;;5047859;28;4485;-53
2023/10/24 15:03:54;;;;;;;;;;;;;;;;;;5020233;28;4639;-60
2023/10/24 15:09:33;;;;;;;;;;;;;;;;;;5012948;28;4967;-62
2023/10/24 15:12:05;;;;;;;;;;;;;;;;;;5008690;28;5068;-62
2023/10/24 15:14:31;;;;;;;;;;;;;;;;;;5008795;28;1073;-61
2023/10/24 15:16:56;;;;;;;;;;;;;;;;;;5005374;28;4556;-61
2023/10/24 15:19:21;;;;;;;;;;;;;;;;;;5009131;28;5038;-61
2023/10/24 15:21:47;;;;;;;;;;;;;;;;;;5020328;28;5199;-61
2023/10/24 15:24:12;;;;;;;;;;;;;;;;;;5015674;28;4538;-62
2023/10/24 15:33:03;;;;;;;;;;;;;;;;;;5008522;28;4925;-60
2023/10/24 15:38:31;;;;;;;;;;;;;;;;;;5016487;28;4822;-60
2023/10/24 15:41:15;;;;;;;;;;;;;;;;;;5015853;28;4608;-60
2023/10/24 15:43:47;;;;;;;;;;;;;;;;;;5014611;28;4471;-59
2023/10/24 15:46:13;;;;;;;;;;;;;;;;;;5015033;28;4936;-61
2023/10/24 15:48:39;;;;;;;;;;;;;;;;;;5013701;28;4528;-52
2023/10/24 15:51:05;;;;;;;;;;;;;;;;;;5016866;28;4471;-51
2023/10/24 15:53:30;;;;;;;;;;;;;;;;;;5013983;28;1018;-50
2023/10/24 15:55:56;;;;;;;;;;;;;;;;;;5013544;28;4545;-51
2023/10/24 15:58:21;;;;;;;;;;;;;;;;;;5013116;28;4475;-53
2023/10/24 16:00:46;;;;;;;;;;;;;;;;;;5012475;28;5091;-56
2023/10/24 16:03:12;;;;;;;;;;;;;;;;;;5014879;28;4416;-51
2023/10/24 16:05:39;;;;;;;;;;;;;;;;;;5013573;28;1047;-50
2023/10/24 16:08:04;;;;;;;;;;;;;;;;;;5014434;28;4985;-51
2023/10/24 16:10:29;;;;;;;;;;;;;;;;;;5013256;28;4664;-52
2023/10/24 16:12:55;;;;;;;;;;;;;;;;;;5010984;28;5318;-50
2023/10/24 16:15:21;;;;;;;;;;;;;;;;;;5012638;28;5219;-50
2023/10/24 16:17:47;;;;;;;;;;;;;;;;;;5015213;28;1902;-50
2023/10/24 16:20:12;;;;;;;;;;;;;;;;;;5013522;28;4523;-51
2023/10/24 16:22:37;;;;;;;;;;;;;;;;;;5013066;28;5242;-50
2023/10/24 16:25:03;;;;;;;;;;;;;;;;;;5014544;28;4679;-51
2023/10/24 16:27:28;;;;;;;;;;;;;;;;;;5012933;28;4429;-48
2023/10/24 16:30:14;;;;;;;;;;;;;;;;;;5010240;28;5051;-50
2023/10/24 16:33:14;;;;;;;;;;;;;;;;;;5033235;28;1021;-49
2023/10/24 16:35:52;;;;;;;;;;;;;;;;;;5007009;28;4571;-49
2023/10/24 16:38:17;;;;;;;;;;;;;;;;;;5012826;28;5518;-48
2023/10/24 16:40:42;;;;;;;;;;;;;;;;;;5011482;28;4376;-51
2023/10/24 16:43:08;;;;;;;;;;;;;;;;;;5032479;28;5129;-49
2023/10/24 16:45:33;;;;;;;;;;;;;;;;;;5025459;28;4406;-47
2023/10/24 16:47:58;;;;;;;;;;;;;;;;;;5010163;28;4958;-48
2023/10/24 16:50:23;;;;;;;;;;;;;;;;;;5011181;28;1296;-48
2023/10/24 17:01:57;;;;;;;;;;;;;;;;;;5007887;28;4550;-52
2023/10/24 17:04:22;;;;;;;;;;;;;;;;;;5010157;28;5130;-50
2023/10/24 17:06:49;;;;;;;;;;;;;;;;;;4993160;28;5113;-51
2023/10/24 17:12:39;;;;;;;;;;;;;;;;;;5006778;28;5081;-47
2023/10/24 17:15:05;;;;;;;;;;;;;;;;;;5008228;28;4969;-46
2023/10/24 17:17:33;;;;;;;;;;;;;;;;;;5028192;28;1910;-53
2023/10/24 17:20:00;;;;;;;;;;;;;;;;;;5012652;28;5103;-50
2023/10/24 17:22:39;;;;;;;;;;;;;;;;;;5017043;28;5251;-53
2023/10/24 17:28:13;;;;;;;;;;;;;;;;;;5009001;28;5203;-52
2023/10/24 17:30:38;;;;;;;;;;;;;;;;;;5011734;28;4832;-49
2023/10/24 17:33:03;;;;;;;;;;;;;;;;;;5013738;28;5019;-53
2023/10/24 17:35:28;;;;;;;;;;;;;;;;;;5029230;28;1191;-49
2023/10/24 17:44:02;;;;;;;;;;;;;;;;;;5033484;28;4434;-49
2023/10/24 17:46:33;;;;;;;;;;;;;;;;;;5029447;28;4838;-48
2023/10/24 17:48:59;;;;;;;;;;;;;;;;;;5015919;28;5169;-49
2023/10/24 17:51:24;;;;;;;;;;;;;;;;;;5015400;28;5159;-49
2023/10/24 17:53:49;;;;;;;;;;;;;;;;;;5013223;28;4542;-49
2023/10/24 17:59:19;;;;;;;;;;;;;;;;;;5016707;28;4764;-48
2023/10/24 18:01:44;;;;;;;;;;;;;;;;;;5018229;28;5105;-48
2023/10/24 18:04:10;;;;;;;;;;;;;;;;;;5035684;28;4926;-49
2023/10/24 18:06:35;;;;;;;;;;;;;;;;;;5014299;28;5087;-49
2023/10/24 18:09:00;;;;;;;;;;;;;;;;;;5014263;28;4780;-50
2023/10/24 18:11:26;;;;;;;;;;;;;;;;;;5014602;28;1310;-51
2023/10/24 18:13:51;;;;;;;;;;;;;;;;;;4997562;28;5012;-48
2023/10/24 18:28:40;;;;;;;;;;;;;;;;;;5017336;28;5205;-51
2023/10/24 18:31:05;;;;;;;;;;;;;;;;;;5013992;28;4658;-48
2023/10/24 18:33:31;;;;;;;;;;;;;;;;;;5012990;28;4907;-50
2023/10/24 18:35:57;;;;;;;;;;;;;;;;;;5013589;28;5070;-51
2023/10/24 18:38:53;;;;;;;;;;;;;;;;;;5030166;28;1989;-50
2023/10/24 18:41:20;;;;;;;;;;;;;;;;;;5015306;28;5057;-50
2023/10/24 18:43:45;;;;;;;;;;;;;;;;;;5014269;28;4446;-46
2023/10/24 18:49:07;;;;;;;;;;;;;;;;;;5010569;28;4666;-51
2023/10/24 18:51:32;;;;;;;;;;;;;;;;;;5023981;28;4503;-51
2023/10/24 18:54:01;;;;;;;;;;;;;;;;;;5009051;28;5184;-50
2023/10/24 18:56:26;;;;;;;;;;;;;;;;;;5019744;28;1910;-50
2023/10/24 18:58:51;;;;;;;;;;;;;;;;;;5011209;28;4459;-47
2023/10/24 19:01:17;;;;;;;;;;;;;;;;;;5012138;28;4556;-48
2023/10/24 19:03:44;;;;;;;;;;;;;;;;;;4996708;28;4851;-51
2023/10/24 19:06:11;;;;;;;;;;;;;;;;;;5012390;28;5144;-49
2023/10/24 19:08:37;;;;;;;;;;;;;;;;;;5030103;28;1245;-51
2023/10/24 19:11:10;;;;;;;;;;;;;;;;;;5006846;28;4579;-49
2023/10/24 19:13:36;;;;;;;;;;;;;;;;;;5010425;28;5030;-48
2023/10/24 19:16:35;;;;;;;;;;;;;;;;;;5014283;28;5403;-49
2023/10/24 19:19:00;;;;;;;;;;;;;;;;;;5010004;28;5017;-47
2023/10/24 19:21:26;;;;;;;;;;;;;;;;;;5013970;28;5413;-48
2023/10/24 19:23:51;;;;;;;;;;;;;;;;;;5016842;28;4672;-48
2023/10/24 19:26:24;;;;;;;;;;;;;;;;;;5010393;28;1215;-51
2023/10/24 19:28:56;;;;;;;;;;;;;;;;;;5021813;28;4580;-51
2023/10/24 19:38:01;;;;;;;;;;;;;;;;;;5015718;28;5064;-50
2023/10/24 19:40:27;;;;;;;;;;;;;;;;;;5030630;28;4478;-48
2023/10/24 19:42:52;;;;;;;;;;;;;;;;;;5013851;28;4995;-48
2023/10/24 19:45:18;;;;;;;;;;;;;;;;;;5015294;28;4953;-49
2023/10/24 19:47:45;;;;;;;;;;;;;;;;;;5030973;28;1063;-52
2023/10/24 19:50:11;;;;;;;;;;;;;;;;;;5015241;28;4952;-48
2023/10/24 19:52:36;;;;;;;;;;;;;;;;;;5015361;28;4569;-51
2023/10/24 19:58:04;;;;;;;;;;;;;;;;;;5015316;28;4420;-49
2023/10/24 20:00:29;;;;;;;;;;;;;;;;;;5034502;28;4544;-55
2023/10/24 20:02:55;;;;;;;;;;;;;;;;;;5027695;28;5101;-57
2023/10/24 20:05:20;;;;;;;;;;;;;;;;;;5015014;28;1075;-56
2023/10/24 20:10:49;;;;;;;;;;;;;;;;;;5010371;28;4810;-54
2023/10/24 20:13:14;;;;;;;;;;;;;;;;;;5013229;28;4693;-57
2023/10/24 20:15:40;;;;;;;;;;;;;;;;;;5015098;28;5050;-47
2023/10/24 20:18:05;;;;;;;;;;;;;;;;;;5014040;28;4847;-47
2023/10/24 20:20:55;;;;;;;;;;;;;;;;;;5027452;28;1329;-47
2023/10/24 20:23:20;;;;;;;;;;;;;;;;;;5024912;28;5130;-50
2023/10/24 20:25:46;;;;;;;;;;;;;;;;;;5010854;28;5497;-49
2023/10/24 20:28:11;;;;;;;;;;;;;;;;;;5020268;28;4497;-48
2023/10/24 20:30:38;;;;;;;;;;;;;;;;;;5017311;28;4603;-50
2023/10/24 20:33:03;;;;;;;;;;;;;;;;;;4993249;28;4714;-48
2023/10/24 20:35:49;;;;;;;;;;;;;;;;;;5019020;28;1058;-49
2023/10/24 20:41:17;;;;;;;;;;;;;;;;;;5015124;28;4556;-52
2023/10/24 20:46:45;;;;;;;;;;;;;;;;;;5015038;28;5040;-68
2023/10/24 20:49:10;;;;;;;;;;;;;;;;;;5014448;28;4891;-67
2023/10/24 20:51:35;;;;;;;;;;;;;;;;;;5014672;28;4498;-67
2023/10/24 20:54:01;;;;;;;;;;;;;;;;;;5014025;28;4940;-67
2023/10/24 20:59:29;;;;;;;;;;;;;;;;;;5015288;28;4568;-68
2023/10/24 21:01:55;;;;;;;;;;;;;;;;;;5014364;28;4978;-67
2023/10/24 21:04:20;;;;;;;;;;;;;;;;;;5014389;28;4980;-68
2023/10/24 21:06:45;;;;;;;;;;;;;;;;;;5014367;28;4977;-68
2023/10/24 21:12:14;;;;;;;;;;;;;;;;;;5034193;28;4843;-68
2023/10/24 21:14:39;;;;;;;;;;;;;;;;;;5034303;28;1087;-69
2023/10/24 21:17:04;;;;;;;;;;;;;;;;;;5037454;28;5047;-69
2023/10/24 21:19:30;;;;;;;;;;;;;;;;;;5038158;28;5001;-69
2023/10/24 21:21:55;;;;;;;;;;;;;;;;;;5037940;28;5052;-68
2023/10/24 21:24:21;;;;;;;;;;;;;;;;;;5037865;28;5106;-69
2023/10/24 21:26:46;;;;;;;;;;;;;;;;;;5038072;28;1080;-69
2023/10/24 21:29:11;;;;;;;;;;;;;;;;;;5051557;28;4427;-69
2023/10/24 21:34:39;;;;;;;;;;;;;;;;;;5018588;28;5330;-69
2023/10/24 21:37:05;;;;;;;;;;;;;;;;;;5016291;28;5504;-68
2023/10/24 21:39:31;;;;;;;;;;;;;;;;;;5024671;28;5069;-69
2023/10/24 21:41:57;;;;;;;;;;;;;;;;;;5037566;28;4934;-69
2023/10/24 21:47:25;;;;;;;;;;;;;;;;;;5038373;28;4732;-68
2023/10/24 21:49:50;;;;;;;;;;;;;;;;;;5032639;28;4950;-69
2023/10/24 21:52:16;;;;;;;;;;;;;;;;;;5037610;28;5087;-69
2023/10/24 21:54:41;;;;;;;;;;;;;;;;;;5028412;28;4909;-69